createdAt,value
2023-02-02T00:00:57.108Z,25.73
2023-02-02T00:03:23.881Z,27.02
2023-02-02T00:05:52.070Z,20.80
2023-02-02T00:08:20.478Z,24.55
2023-02-02T00:10:47.573Z,20.10
2023-02-02T00:13:14.616Z,27.13
2023-02-02T00:15:41.312Z,16.98
2023-02-02T00:18:08.004Z,25.08
2023-02-02T00:20:34.671Z,29.75
2023-02-02T00:23:01.360Z,18.42
2023-02-02T00:25:28.030Z,20.17
2023-02-02T00:27:54.714Z,24.42
2023-02-02T00:30:21.428Z,14.98
2023-02-02T00:32:48.031Z,19.52
2023-02-02T00:35:15.415Z,22.13
2023-02-02T00:37:42.268Z,19.23
2023-02-02T00:40:11.526Z,18.40
2023-02-02T00:42:38.269Z,18.88
2023-02-02T00:45:05.376Z,20.55
2023-02-02T00:47:32.001Z,16.70
2023-02-02T00:49:58.598Z,27.92
2023-02-02T00:52:25.300Z,19.23
2023-02-02T00:54:51.958Z,21.33
2023-02-02T00:57:30.535Z,26.33
2023-02-02T01:00:00.065Z,21.33
2023-02-02T01:02:26.874Z,19.70
2023-02-02T01:04:53.613Z,15.15
2023-02-02T01:07:20.226Z,22.38
2023-02-02T01:09:46.842Z,21.92
2023-02-02T01:12:13.513Z,18.00
2023-02-02T01:14:40.149Z,19.08
2023-02-02T01:17:06.789Z,22.55
2023-02-02T01:19:33.601Z,21.48
2023-02-02T01:22:01.809Z,19.38
2023-02-02T01:25:16.348Z,19.77
2023-02-02T01:28:00.565Z,22.55
2023-02-02T01:30:27.190Z,22.10
2023-02-02T01:32:53.826Z,19.52
2023-02-02T01:35:20.462Z,19.65
2023-02-02T01:37:47.072Z,16.85
2023-02-02T01:40:13.929Z,19.40
2023-02-02T01:42:40.619Z,21.23
2023-02-02T01:45:14.734Z,16.25
2023-02-02T01:47:44.318Z,16.45
2023-02-02T01:50:12.043Z,24.23
2023-02-02T01:52:38.845Z,20.40
2023-02-02T01:55:10.018Z,21.38
2023-02-02T01:58:08.259Z,24.83
2023-02-02T02:03:20.137Z,19.05
2023-02-02T02:06:08.829Z,19.25
2023-02-02T02:08:38.605Z,20.38
2023-02-02T02:11:05.557Z,26.23
2023-02-02T02:13:32.807Z,20.10
2023-02-02T02:16:06.084Z,21.55
2023-02-02T02:18:48.142Z,21.92
2023-02-02T02:21:29.467Z,11.50
2023-02-02T02:24:39.419Z,23.13
2023-02-02T02:30:13.665Z,24.80
2023-02-02T02:32:43.071Z,19.55
2023-02-02T02:35:42.827Z,18.75
2023-02-02T02:38:25.649Z,17.42
2023-02-02T02:40:55.329Z,22.35
2023-02-02T02:43:27.802Z,22.60
2023-02-02T02:45:54.421Z,16.00
2023-02-02T02:48:21.147Z,22.48
2023-02-02T02:50:47.915Z,23.75
2023-02-02T02:53:16.677Z,20.70
2023-02-02T02:56:07.338Z,18.50
2023-02-02T02:59:09.969Z,18.30
2023-02-02T03:01:39.163Z,19.52
2023-02-02T03:04:13.004Z,17.27
2023-02-02T03:07:17.599Z,24.52
2023-02-02T03:09:44.441Z,16.58
2023-02-02T03:12:12.235Z,17.90
2023-02-02T03:14:38.915Z,26.48
2023-02-02T03:17:05.540Z,17.23
2023-02-02T03:19:32.198Z,17.33
2023-02-02T03:21:58.871Z,24.98
2023-02-02T03:24:25.484Z,13.27
2023-02-02T03:26:52.122Z,22.95
2023-02-02T03:29:18.873Z,20.00
2023-02-02T03:31:45.861Z,16.33
2023-02-02T03:34:12.505Z,14.23
2023-02-02T03:36:39.186Z,24.33
2023-02-02T03:39:05.900Z,21.50
2023-02-02T03:41:32.508Z,17.33
2023-02-02T03:43:59.177Z,20.20
2023-02-02T03:46:25.860Z,21.67
2023-02-02T03:48:52.487Z,19.35
2023-02-02T03:51:19.201Z,20.92
2023-02-02T03:53:46.007Z,20.15
2023-02-02T03:56:12.790Z,25.52
2023-02-02T03:58:39.419Z,18.27
2023-02-02T04:01:07.324Z,21.17
2023-02-02T04:03:34.048Z,16.77
2023-02-02T04:06:01.100Z,19.75
2023-02-02T04:08:27.826Z,18.00
2023-02-02T04:10:54.684Z,19.17
2023-02-02T04:13:21.403Z,15.32
2023-02-02T04:15:48.111Z,25.60
2023-02-02T04:18:14.770Z,17.73
2023-02-02T04:20:41.441Z,16.75
2023-02-02T04:23:08.061Z,17.92
2023-02-02T04:25:34.683Z,32.20
2023-02-02T04:28:01.309Z,18.27
2023-02-02T04:30:28.035Z,22.30
2023-02-02T04:32:54.971Z,24.65
2023-02-02T04:35:21.697Z,16.77
2023-02-02T04:37:48.667Z,15.00
2023-02-02T04:40:15.416Z,23.60
2023-02-02T04:42:42.059Z,18.83
2023-02-02T04:45:08.912Z,14.75
2023-02-02T04:47:35.583Z,18.98
2023-02-02T04:50:02.257Z,19.60
2023-02-02T04:52:29.320Z,13.90
2023-02-02T04:54:55.969Z,16.50
2023-02-02T04:57:22.651Z,19.20
2023-02-02T04:59:49.313Z,18.40
2023-02-02T05:02:15.984Z,17.55
2023-02-02T05:04:42.704Z,19.20
2023-02-02T05:07:09.404Z,18.10
2023-02-02T05:09:35.996Z,20.27
2023-02-02T05:12:02.686Z,19.98
2023-02-02T05:14:29.351Z,15.27
2023-02-02T05:16:56.045Z,23.02
2023-02-02T05:19:22.711Z,35.72
2023-02-02T05:21:51.009Z,22.80
2023-02-02T05:24:18.087Z,20.50
2023-02-02T05:26:44.690Z,16.65
2023-02-02T05:29:11.357Z,22.58
2023-02-02T05:31:38.064Z,15.38
2023-02-02T05:34:04.715Z,13.88
2023-02-02T05:36:31.315Z,16.80
2023-02-02T05:38:57.967Z,19.70
2023-02-02T05:41:24.617Z,13.00
2023-02-02T05:43:51.245Z,18.85
2023-02-02T05:46:17.928Z,14.48
2023-02-02T05:48:44.608Z,17.05
2023-02-02T05:51:28.001Z,19.23
2023-02-02T05:53:54.684Z,20.20
2023-02-02T05:56:21.462Z,20.55
2023-02-02T05:58:48.169Z,19.38
2023-02-02T06:01:14.974Z,23.65
2023-02-02T06:03:41.772Z,21.02
2023-02-02T06:06:08.983Z,21.65
2023-02-02T06:08:36.178Z,16.30
2023-02-02T06:11:16.498Z,15.25
2023-02-02T06:13:45.756Z,21.45
2023-02-02T06:16:12.758Z,24.20
2023-02-02T06:18:39.506Z,18.77
2023-02-02T06:21:23.427Z,18.30
2023-02-02T06:23:54.735Z,19.98
2023-02-02T06:26:21.887Z,26.35
2023-02-02T06:28:50.313Z,21.25
2023-02-02T06:31:18.300Z,21.75
2023-02-02T06:33:48.764Z,23.60
2023-02-02T06:36:15.530Z,19.73
2023-02-02T06:38:42.156Z,17.65
2023-02-02T06:41:12.235Z,22.08
2023-02-02T06:43:38.943Z,14.45
2023-02-02T06:46:05.587Z,22.67
2023-02-02T06:48:32.378Z,18.38
2023-02-02T06:50:59.340Z,21.85
2023-02-02T06:53:26.536Z,17.08
2023-02-02T06:55:56.569Z,22.58
2023-02-02T06:58:23.445Z,17.33
2023-02-02T07:00:50.119Z,20.98
2023-02-02T07:03:16.935Z,15.73
2023-02-02T07:05:43.738Z,23.42
2023-02-02T07:08:12.926Z,12.70
2023-02-02T07:11:13.278Z,15.95
2023-02-02T07:13:26.353Z,13.77
2023-02-02T07:15:53.007Z,16.77
2023-02-02T07:18:19.654Z,15.48
2023-02-02T07:20:46.319Z,14.82
2023-02-02T07:23:12.927Z,22.88
2023-02-02T07:25:39.593Z,17.70
2023-02-02T07:28:06.296Z,10.93
2023-02-02T07:30:32.971Z,16.50
2023-02-02T07:32:59.690Z,15.30
2023-02-02T07:35:26.636Z,17.42
2023-02-02T07:37:54.100Z,14.95
2023-02-02T07:40:20.794Z,18.33
2023-02-02T07:42:47.862Z,13.27
2023-02-02T07:45:27.309Z,17.60
2023-02-02T07:47:58.526Z,15.93
2023-02-02T07:50:44.675Z,17.20
2023-02-02T07:53:11.354Z,12.13
2023-02-02T07:55:38.096Z,15.35
2023-02-02T07:58:04.746Z,16.73
2023-02-02T08:00:31.470Z,16.52
2023-02-02T08:02:58.157Z,16.23
2023-02-02T08:05:25.031Z,19.67
2023-02-02T08:07:51.880Z,21.08
2023-02-02T08:10:18.642Z,14.02
2023-02-02T08:12:45.288Z,14.27
2023-02-02T08:15:12.009Z,20.38
2023-02-02T08:17:38.793Z,19.67
2023-02-02T08:20:08.860Z,18.55
2023-02-02T08:22:35.517Z,14.18
2023-02-02T08:25:02.410Z,19.42
2023-02-02T08:27:29.097Z,18.95
2023-02-02T08:29:55.830Z,17.40
2023-02-02T08:32:22.479Z,15.23
2023-02-02T08:34:49.589Z,17.13
2023-02-02T08:37:16.279Z,20.08
2023-02-02T08:39:42.994Z,15.25
2023-02-02T08:42:09.774Z,13.63
2023-02-02T08:44:45.212Z,21.15
2023-02-02T08:47:23.180Z,19.10
2023-02-02T08:49:50.168Z,18.88
2023-02-02T08:52:16.799Z,20.55
2023-02-02T08:54:43.388Z,18.80
2023-02-02T08:57:10.102Z,20.48
2023-02-02T08:59:36.715Z,15.05
2023-02-02T09:02:03.426Z,18.08
2023-02-02T09:04:30.129Z,21.35
2023-02-02T09:06:56.730Z,13.48
2023-02-02T09:09:23.377Z,22.13
2023-02-02T09:11:50.050Z,22.92
2023-02-02T09:14:16.658Z,23.42
2023-02-02T09:16:43.474Z,17.98
2023-02-02T09:19:11.146Z,20.92
2023-02-02T09:21:37.827Z,15.80
2023-02-02T09:24:11.950Z,13.55
2023-02-02T09:26:38.744Z,19.05
2023-02-02T09:29:06.191Z,17.05
2023-02-02T09:31:34.324Z,15.02
2023-02-02T09:34:02.262Z,18.02
2023-02-02T09:36:28.994Z,18.48
2023-02-02T09:38:55.727Z,14.52
2023-02-02T09:41:37.276Z,20.30
2023-02-02T09:44:12.890Z,13.88
2023-02-02T09:46:47.173Z,14.85
2023-02-02T09:49:23.054Z,21.58
2023-02-02T09:51:59.793Z,17.00
2023-02-02T09:54:39.033Z,19.33
2023-02-02T09:57:08.783Z,14.82
2023-02-02T10:02:17.302Z,15.43
2023-02-02T10:04:44.872Z,14.77
2023-02-02T10:07:19.710Z,19.00
2023-02-02T10:09:53.956Z,13.55
2023-02-02T10:12:53.286Z,17.25
2023-02-02T10:15:33.513Z,16.23
2023-02-02T10:18:18.080Z,16.35
2023-02-02T10:20:44.779Z,14.27
2023-02-02T10:23:36.199Z,15.98
2023-02-02T10:26:23.170Z,12.73
2023-02-02T10:29:02.908Z,12.52
2023-02-02T10:31:38.913Z,19.02
2023-02-02T10:34:08.373Z,14.93
2023-02-02T10:36:57.827Z,17.77
2023-02-02T10:39:36.704Z,14.13
2023-02-02T10:42:24.831Z,14.85
2023-02-02T10:44:54.676Z,18.50
2023-02-02T10:47:26.822Z,12.48
2023-02-02T10:50:12.465Z,14.77
2023-02-02T10:52:40.622Z,17.85
2023-02-02T10:56:00.095Z,14.68
2023-02-02T10:58:29.438Z,12.00
2023-02-02T11:00:56.446Z,12.38
2023-02-02T11:03:32.592Z,17.30
2023-02-02T11:06:00.987Z,12.07
2023-02-02T11:08:41.974Z,22.02
2023-02-02T11:11:24.899Z,14.05
2023-02-02T11:14:02.357Z,18.63
2023-02-02T11:16:42.637Z,18.08
2023-02-02T11:19:19.347Z,14.52
2023-02-02T11:21:53.277Z,13.73
2023-02-02T11:24:34.972Z,21.05
2023-02-02T11:27:14.852Z,16.00
2023-02-02T11:29:44.703Z,16.85
2023-02-02T11:32:24.042Z,14.25
2023-02-02T11:35:07.951Z,16.40
2023-02-02T11:37:35.498Z,12.88
2023-02-02T11:40:24.340Z,17.67
2023-02-02T11:42:51.680Z,19.38
2023-02-02T11:45:19.657Z,14.25
2023-02-02T11:47:46.435Z,16.15
2023-02-02T11:50:26.988Z,18.50
2023-02-02T11:52:53.834Z,14.13
2023-02-02T11:55:27.856Z,12.40
2023-02-02T11:58:26.688Z,20.80
2023-02-02T12:01:01.309Z,14.82
2023-02-02T12:03:31.012Z,14.43
2023-02-02T12:05:58.867Z,14.13
2023-02-02T12:08:25.577Z,12.10
2023-02-02T12:11:02.066Z,10.02
2023-02-02T12:13:35.611Z,11.77
2023-02-02T12:16:19.386Z,13.55
2023-02-02T12:19:10.606Z,15.10
2023-02-02T12:21:43.102Z,15.38
2023-02-02T12:24:29.748Z,12.00
2023-02-02T12:27:04.293Z,12.88
2023-02-02T12:29:53.069Z,17.00
2023-02-02T12:32:42.359Z,13.85
2023-02-02T12:35:40.905Z,14.70
2023-02-02T12:38:52.230Z,10.95
2023-02-02T12:41:27.946Z,15.35
2023-02-02T12:44:18.760Z,9.23
2023-02-02T12:46:54.630Z,15.85
2023-02-02T12:49:56.946Z,12.90
2023-02-02T12:52:40.312Z,13.18
2023-02-02T12:55:36.402Z,15.25
2023-02-02T12:58:27.833Z,10.32
2023-02-02T13:01:06.921Z,9.38
2023-02-02T13:03:59.543Z,8.65
2023-02-02T13:06:46.580Z,7.93
2023-02-02T13:09:15.683Z,12.65
2023-02-02T13:11:53.120Z,13.90
2023-02-02T13:14:31.543Z,12.55
2023-02-02T13:17:01.251Z,10.70
2023-02-02T13:22:34.404Z,13.20
2023-02-02T13:25:02.093Z,16.23
2023-02-02T13:27:29.589Z,9.30
2023-02-02T13:30:00.655Z,14.30
2023-02-02T13:32:38.272Z,11.32
2023-02-02T13:35:11.041Z,9.60
2023-02-02T13:37:55.047Z,11.57
2023-02-02T13:40:26.777Z,13.38
2023-02-02T13:42:58.095Z,10.52
2023-02-02T13:45:42.105Z,15.57
2023-02-02T13:48:15.117Z,16.27
2023-02-02T13:51:05.933Z,11.70
2023-02-02T13:53:47.282Z,9.85
2023-02-02T13:56:28.586Z,14.90
2023-02-02T13:59:16.524Z,13.13
2023-02-02T14:01:44.877Z,9.63
2023-02-02T14:04:22.161Z,8.15
2023-02-02T14:06:58.748Z,12.68
2023-02-02T14:09:27.773Z,9.07
2023-02-02T14:11:59.592Z,10.80
2023-02-02T14:14:26.239Z,10.80
2023-02-02T14:16:52.959Z,13.65
2023-02-02T14:19:34.525Z,11.98
2023-02-02T14:22:46.060Z,12.82
2023-02-02T14:25:30.783Z,12.57
2023-02-02T14:27:58.725Z,13.25
2023-02-02T14:30:30.896Z,12.85
2023-02-02T14:33:22.214Z,8.82
2023-02-02T14:35:48.791Z,13.45
2023-02-02T14:38:22.045Z,12.02
2023-02-02T14:40:57.581Z,14.02
2023-02-02T14:43:47.624Z,9.63
2023-02-02T14:46:14.315Z,9.70
2023-02-02T14:48:44.490Z,11.38
2023-02-02T14:51:18.211Z,15.25
2023-02-02T14:54:06.655Z,11.50
2023-02-02T14:56:50.163Z,14.95
2023-02-02T14:59:27.160Z,9.82
2023-02-02T15:02:18.004Z,9.00
2023-02-02T15:04:44.620Z,11.30
2023-02-02T15:07:23.365Z,12.63
2023-02-02T15:09:53.822Z,12.57
2023-02-02T15:12:35.341Z,15.00
2023-02-02T15:15:27.454Z,12.73
2023-02-02T15:18:11.702Z,15.18
2023-02-02T15:20:49.216Z,10.93
2023-02-02T15:23:15.889Z,11.10
2023-02-02T15:25:56.331Z,14.00
2023-02-02T15:28:41.392Z,10.45
2023-02-02T15:31:21.161Z,14.07
2023-02-02T15:33:52.197Z,10.63
2023-02-02T15:36:26.925Z,10.25
2023-02-02T15:38:56.119Z,11.85
2023-02-02T15:41:32.133Z,8.90
2023-02-02T15:43:59.754Z,12.07
2023-02-02T15:46:31.770Z,11.30
2023-02-02T15:49:35.652Z,13.65
2023-02-02T15:52:22.762Z,9.15
2023-02-02T15:54:53.926Z,10.02
2023-02-02T15:57:32.007Z,12.30
2023-02-02T15:59:59.414Z,11.40
2023-02-02T16:02:34.284Z,10.43
2023-02-02T16:05:01.011Z,10.73
2023-02-02T16:07:32.087Z,12.88
2023-02-02T16:10:05.704Z,10.20
2023-02-02T16:12:32.770Z,9.30
2023-02-02T16:15:02.299Z,11.88
2023-02-02T16:17:30.776Z,14.95
2023-02-02T16:20:03.597Z,10.18
2023-02-02T16:22:30.242Z,7.30
2023-02-02T16:25:02.079Z,9.65
2023-02-02T16:27:29.944Z,9.30
2023-02-02T16:30:05.340Z,8.52
2023-02-02T16:32:37.095Z,4.95
2023-02-02T16:35:24.510Z,11.05
2023-02-02T16:37:52.615Z,19.40
2023-02-02T16:40:26.941Z,11.45
2023-02-02T16:43:06.455Z,9.10
2023-02-02T16:45:44.836Z,9.00
2023-02-02T16:48:35.713Z,7.55
2023-02-02T16:51:17.609Z,7.60
2023-02-02T16:54:16.581Z,7.32
2023-02-02T16:56:50.690Z,5.47
2023-02-02T16:59:17.506Z,7.40
2023-02-02T17:01:49.664Z,9.43
2023-02-02T17:04:31.068Z,10.93
2023-02-02T17:07:08.050Z,10.15
2023-02-02T17:09:44.891Z,11.73
2023-02-02T17:12:32.246Z,7.32
2023-02-02T17:15:02.064Z,7.25
2023-02-02T17:17:28.781Z,7.10
2023-02-02T17:19:55.428Z,6.35
2023-02-02T17:22:23.743Z,6.82
2023-02-02T17:24:51.027Z,4.28
2023-02-02T17:27:36.212Z,6.28
2023-02-02T17:30:03.570Z,7.68
2023-02-02T17:32:30.398Z,12.30
2023-02-02T17:34:57.215Z,7.53
2023-02-02T17:37:23.970Z,7.38
2023-02-02T17:39:52.613Z,5.70
2023-02-02T17:42:26.731Z,8.55
2023-02-02T17:44:53.489Z,4.68
2023-02-02T17:47:20.150Z,8.55
2023-02-02T17:49:46.819Z,6.10
2023-02-02T17:52:13.516Z,7.72
2023-02-02T17:54:40.322Z,9.25
2023-02-02T17:57:07.020Z,5.00
2023-02-02T17:59:33.703Z,9.45
2023-02-02T18:02:00.582Z,11.40
2023-02-02T18:04:27.406Z,8.07
2023-02-02T18:06:55.718Z,9.35
2023-02-02T18:09:33.693Z,10.95
2023-02-02T18:12:00.986Z,8.80
2023-02-02T18:14:27.855Z,8.25
2023-02-02T18:16:54.842Z,6.97
2023-02-02T18:19:23.764Z,6.72
2023-02-02T18:21:50.489Z,4.78
2023-02-02T18:24:18.771Z,7.57
2023-02-02T18:26:46.921Z,7.80
2023-02-02T18:29:13.608Z,10.00
2023-02-02T18:31:42.330Z,11.75
2023-02-02T18:34:13.512Z,7.63
2023-02-02T18:36:40.552Z,7.53
2023-02-02T18:39:08.056Z,6.30
2023-02-02T18:41:34.909Z,9.05
2023-02-02T18:44:08.066Z,10.07
2023-02-02T18:46:34.982Z,11.35
2023-02-02T18:49:02.252Z,6.60
2023-02-02T18:51:30.146Z,13.90
2023-02-02T18:53:59.047Z,9.68
2023-02-02T18:56:32.731Z,12.27
2023-02-02T18:58:59.372Z,12.27
2023-02-02T19:01:28.742Z,6.95
2023-02-02T19:04:03.116Z,11.23
2023-02-02T19:06:32.715Z,9.73
2023-02-02T19:08:59.492Z,10.85
2023-02-02T19:11:31.388Z,8.77
2023-02-02T19:13:59.198Z,9.63
2023-02-02T19:16:27.602Z,11.57
2023-02-02T19:19:21.651Z,14.50
2023-02-02T19:21:48.583Z,10.40
2023-02-02T19:24:16.473Z,11.82
2023-02-02T19:26:47.326Z,14.65
2023-02-02T19:29:19.427Z,12.00
2023-02-02T19:31:46.270Z,15.63
2023-02-02T19:34:15.609Z,13.15
2023-02-02T19:36:42.256Z,14.13
2023-02-02T19:39:13.549Z,8.38
2023-02-02T19:41:40.272Z,9.40
2023-02-02T19:44:20.526Z,14.32
2023-02-02T19:46:50.257Z,11.88
2023-02-02T19:49:19.645Z,10.02
2023-02-02T19:51:47.365Z,15.15
2023-02-02T19:54:27.336Z,14.18
2023-02-02T19:57:01.093Z,12.20
2023-02-02T19:59:32.279Z,11.75
2023-02-02T20:01:59.121Z,13.75
2023-02-02T20:04:26.983Z,16.35
2023-02-02T20:06:59.508Z,11.35
2023-02-02T20:09:28.714Z,16.40
2023-02-02T20:11:55.482Z,18.17
2023-02-02T20:14:28.995Z,17.02
2023-02-02T20:17:11.598Z,12.70
2023-02-02T20:19:40.821Z,15.95
2023-02-02T20:22:24.659Z,10.68
2023-02-02T20:24:51.302Z,11.93
2023-02-02T20:27:20.006Z,9.68
2023-02-02T20:29:47.647Z,12.95
2023-02-02T20:32:25.117Z,16.75
2023-02-02T20:34:52.576Z,14.70
2023-02-02T20:37:26.431Z,10.68
2023-02-02T20:40:02.565Z,12.23
2023-02-02T20:42:29.733Z,9.77
2023-02-02T20:44:56.440Z,14.77
2023-02-02T20:47:23.156Z,16.80
2023-02-02T20:49:49.843Z,11.00
2023-02-02T20:52:17.708Z,14.80
2023-02-02T20:54:44.458Z,16.77
2023-02-02T20:57:11.077Z,14.88
2023-02-02T20:59:38.017Z,13.95
2023-02-02T21:02:04.744Z,21.23
2023-02-02T21:04:31.555Z,15.40
2023-02-02T21:06:58.339Z,16.80
2023-02-02T21:09:25.576Z,20.00
2023-02-02T21:11:52.422Z,16.25
2023-02-02T21:14:19.080Z,17.63
2023-02-02T21:16:45.792Z,12.95
2023-02-02T21:19:12.597Z,18.02
2023-02-02T21:21:39.256Z,23.40
2023-02-02T21:24:06.004Z,27.60
2023-02-02T21:26:38.962Z,17.58
2023-02-02T21:29:05.724Z,16.45
2023-02-02T21:31:32.460Z,17.20
2023-02-02T21:33:59.161Z,19.98
2023-02-02T21:36:31.687Z,18.42
2023-02-02T21:39:37.422Z,16.00
2023-02-02T21:42:17.914Z,14.93
2023-02-02T21:44:46.447Z,17.15
2023-02-02T21:47:36.721Z,18.70
2023-02-02T21:50:17.393Z,15.00
2023-02-02T21:52:44.225Z,19.45
2023-02-02T21:55:25.837Z,19.05
2023-02-02T21:57:52.482Z,24.10
2023-02-02T22:00:31.782Z,17.35
2023-02-02T22:03:44.954Z,26.77
2023-02-02T22:08:44.363Z,24.10
2023-02-02T22:11:30.520Z,17.23
2023-02-02T22:14:22.060Z,23.77
2023-02-02T22:16:53.465Z,25.60
2023-02-02T22:19:33.640Z,19.52
2023-02-02T22:22:23.731Z,22.65
2023-02-02T22:24:59.174Z,28.48
2023-02-02T22:27:27.346Z,21.77
2023-02-02T22:30:13.045Z,20.23
2023-02-02T22:32:39.688Z,24.50
2023-02-02T22:35:06.610Z,21.33
2023-02-02T22:37:33.263Z,16.40
2023-02-02T22:40:00.783Z,15.32
2023-02-02T22:42:27.755Z,17.55
2023-02-02T22:44:54.350Z,20.27
2023-02-02T22:47:20.991Z,19.10
2023-02-02T22:49:47.602Z,25.42
2023-02-02T22:52:14.214Z,18.88
2023-02-02T22:54:40.855Z,19.90
2023-02-02T22:57:07.497Z,25.58
2023-02-02T22:59:34.154Z,20.25
2023-02-02T23:02:00.777Z,15.90
2023-02-02T23:04:27.458Z,17.35
2023-02-02T23:06:54.075Z,27.27
2023-02-02T23:09:20.744Z,28.70
2023-02-02T23:11:49.365Z,19.38
2023-02-02T23:14:16.074Z,12.98
2023-02-02T23:16:42.723Z,19.52
2023-02-02T23:19:09.392Z,16.83
2023-02-02T23:21:36.023Z,20.85
2023-02-02T23:24:38.590Z,17.80
2023-02-02T23:27:05.245Z,14.27
2023-02-02T23:29:31.959Z,12.88
2023-02-02T23:31:58.668Z,16.30
2023-02-02T23:34:25.403Z,13.05
2023-02-02T23:36:52.017Z,14.27
2023-02-02T23:39:18.656Z,19.13
2023-02-02T23:41:45.277Z,13.93
2023-02-02T23:44:11.885Z,16.80
2023-02-02T23:46:38.587Z,21.48
2023-02-02T23:49:05.400Z,17.75
2023-02-02T23:51:32.202Z,10.63
2023-02-02T23:53:58.961Z,24.92
2023-02-02T23:56:25.651Z,10.55
2023-02-02T23:58:52.332Z,10.98
